Time;durP1;ratioP1;P1;durP2;ratioP2;P2;SDS_P1;SDS_P2;PMS_P1;PMS_P2;Temp;Humidity;BMP_temperature;BMP_pressure;BME280_temperature;BME280_humidity;BME280_pressure;Samples;Min_cycle;Max_cycle;Signal;HPM_P1;HPM_P2
2023/04/19 00:00:37;;;;;;;10.50;7.53;;;12.10;66.10;;;;;;5022319;28;20030;-62
2023/04/19 00:03:03;;;;;;;8.80;6.97;;;12.10;66.30;;;;;;5029902;28;20025;-62
2023/04/19 00:05:28;;;;;;;14.18;7.60;;;12.10;66.10;;;;;;5035511;28;20022;-62
2023/04/19 00:07:54;;;;;;;9.80;7.70;;;12.10;66.30;;;;;;5036544;28;20029;-62
2023/04/19 00:10:20;;;;;;;10.40;7.72;;;12.10;66.40;;;;;;5024106;28;20042;-63
2023/04/19 00:12:45;;;;;;;11.40;7.65;;;12.10;66.40;;;;;;5020180;28;20087;-63
2023/04/19 00:15:11;;;;;;;10.30;7.03;;;12.10;66.40;;;;;;5024221;28;20069;-62
2023/04/19 00:17:37;;;;;;;10.02;7.10;;;12.10;66.40;;;;;;5022747;28;20036;-62
2023/04/19 00:20:04;;;;;;;9.73;7.32;;;12.10;66.50;;;;;;5070085;28;20029;-62
2023/04/19 00:22:30;;;;;;;9.25;7.32;;;12.00;66.50;;;;;;5026189;28;20052;-63
2023/04/19 00:24:56;;;;;;;9.75;7.07;;;12.10;66.50;;;;;;5016786;28;20030;-62
2023/04/19 00:27:21;;;;;;;10.65;7.47;;;12.10;66.60;;;;;;5028374;28;20053;-62
2023/04/19 00:29:47;;;;;;;10.27;7.90;;;12.10;66.70;;;;;;5026096;28;20045;-62
2023/04/19 00:32:13;;;;;;;10.43;7.88;;;12.10;66.60;;;;;;5039507;28;20029;-62
2023/04/19 00:34:39;;;;;;;8.90;7.50;;;12.10;66.60;;;;;;5033383;28;20022;-63
2023/04/19 00:37:05;;;;;;;10.35;8.30;;;12.10;66.60;;;;;;5033002;28;20511;-61
2023/04/19 00:39:31;;;;;;;10.57;8.05;;;12.10;66.70;;;;;;5025519;28;20018;-61
2023/04/19 00:41:56;;;;;;;11.27;8.75;;;12.10;66.50;;;;;;5059484;28;20141;-62
2023/04/19 00:44:23;;;;;;;13.13;9.02;;;12.10;66.40;;;;;;5026074;28;20030;-62
2023/04/19 00:46:49;;;;;;;12.52;8.68;;;12.00;66.50;;;;;;5059340;28;20220;-62
2023/04/19 00:49:19;;;;;;;12.40;8.55;;;12.00;66.60;;;;;;5025112;28;20029;-63
2023/04/19 00:51:46;;;;;;;9.57;7.97;;;12.00;66.60;;;;;;5024759;28;20037;-62
2023/04/19 00:54:13;;;;;;;11.30;8.30;;;12.00;66.60;;;;;;5027323;28;20053;-62
2023/04/19 00:56:40;;;;;;;10.65;7.88;;;12.00;66.80;;;;;;5022423;28;20026;-62
2023/04/19 00:59:06;;;;;;;12.43;8.32;;;12.00;66.80;;;;;;5027138;28;20029;-62
2023/04/19 01:01:32;;;;;;;10.70;7.68;;;12.00;66.90;;;;;;5028319;28;20022;-61
2023/04/19 01:04:00;;;;;;;11.38;8.18;;;12.00;66.90;;;;;;5028821;28;20065;-61
2023/04/19 01:06:28;;;;;;;14.02;9.25;;;12.00;67.00;;;;;;5024547;28;20022;-61
2023/04/19 01:08:55;;;;;;;11.35;8.48;;;12.00;67.10;;;;;;5025804;28;20022;-62
2023/04/19 01:11:22;;;;;;;12.98;8.60;;;11.90;66.90;;;;;;5023430;28;20037;-62
2023/04/19 01:13:48;;;;;;;12.10;8.45;;;12.00;67.00;;;;;;5025713;28;20134;-64
2023/04/19 01:16:14;;;;;;;11.75;8.38;;;12.00;67.10;;;;;;5024555;28;20389;-62
2023/04/19 01:18:40;;;;;;;12.70;8.70;;;12.00;67.20;;;;;;5029032;28;20033;-62
2023/04/19 01:21:07;;;;;;;10.85;8.40;;;12.00;67.20;;;;;;5037332;28;20022;-62
2023/04/19 01:23:33;;;;;;;12.73;8.43;;;12.00;67.20;;;;;;5032473;28;20523;-62
2023/04/19 01:26:00;;;;;;;10.68;8.52;;;12.00;67.10;;;;;;5026881;28;20030;-62
2023/04/19 01:28:26;;;;;;;11.63;8.93;;;12.00;67.30;;;;;;5038477;28;20026;-62
2023/04/19 01:30:52;;;;;;;11.48;8.32;;;12.00;67.30;;;;;;5031913;28;20092;-62
2023/04/19 01:33:22;;;;;;;11.38;8.57;;;12.00;67.40;;;;;;5069878;28;20029;-62
2023/04/19 01:35:48;;;;;;;10.63;8.27;;;12.00;67.40;;;;;;5061113;28;20033;-63
2023/04/19 01:38:15;;;;;;;11.80;8.95;;;12.00;67.40;;;;;;5033863;28;20056;-63
2023/04/19 01:40:40;;;;;;;11.77;8.85;;;12.00;67.50;;;;;;4955162;28;20022;-62
2023/04/19 01:43:07;;;;;;;13.75;9.68;;;12.00;67.70;;;;;;5047689;28;20035;-63
2023/04/19 01:45:34;;;;;;;14.07;8.93;;;12.00;67.70;;;;;;5025913;28;20078;-62
2023/04/19 01:48:01;;;;;;;13.77;9.18;;;12.00;67.60;;;;;;5016455;28;20026;-63
2023/04/19 01:50:29;;;;;;;13.05;9.27;;;11.90;67.50;;;;;;5026138;28;20029;-62
2023/04/19 01:52:54;;;;;;;11.90;9.25;;;11.90;67.50;;;;;;5026471;28;20030;-62
2023/04/19 01:55:20;;;;;;;14.85;9.02;;;11.90;67.70;;;;;;5031628;28;20044;-63
2023/04/19 01:57:46;;;;;;;11.32;9.20;;;11.90;67.80;;;;;;5027564;28;20022;-62
2023/04/19 02:00:12;;;;;;;12.93;9.07;;;11.90;67.80;;;;;;5022207;28;20085;-62
2023/04/19 02:02:37;;;;;;;11.15;9.02;;;11.90;67.80;;;;;;5022448;28;20033;-62
2023/04/19 02:05:07;;;;;;;12.93;9.55;;;11.90;67.90;;;;;;5021869;28;20392;-62
2023/04/19 02:07:33;;;;;;;13.50;9.80;;;11.80;68.00;;;;;;5020885;28;20049;-62
2023/04/19 02:09:59;;;;;;;14.30;9.50;;;11.80;67.90;;;;;;5029351;28;20034;-63
2023/04/19 02:12:29;;;;;;;12.18;9.43;;;11.80;67.90;;;;;;5025361;28;20108;-62
2023/04/19 02:14:58;;;;;;;13.27;9.63;;;11.80;68.10;;;;;;5041418;28;20040;-63
2023/04/19 02:17:24;;;;;;;14.07;9.35;;;11.80;68.10;;;;;;5023600;28;20033;-63
2023/04/19 02:19:51;;;;;;;13.00;9.70;;;11.70;68.00;;;;;;5024924;28;20033;-63
2023/04/19 02:22:17;;;;;;;12.43;9.63;;;11.70;68.20;;;;;;5025049;28;20040;-62
2023/04/19 02:24:43;;;;;;;13.50;9.43;;;11.70;68.10;;;;;;5018629;28;20018;-63
2023/04/19 02:27:10;;;;;;;13.52;10.02;;;11.70;68.20;;;;;;5016616;28;20052;-62
2023/04/19 02:29:37;;;;;;;14.27;9.73;;;11.70;68.30;;;;;;5025764;28;20040;-62
2023/04/19 02:32:04;;;;;;;15.35;10.93;;;11.70;68.30;;;;;;5021712;28;20034;-62
2023/04/19 02:34:33;;;;;;;13.65;9.98;;;11.70;68.30;;;;;;5023347;28;20033;-63
2023/04/19 02:36:59;;;;;;;16.30;10.57;;;11.70;68.30;;;;;;5031355;28;20045;-61
2023/04/19 02:39:25;;;;;;;14.32;10.13;;;11.70;68.30;;;;;;5028274;28;20032;-61
2023/04/19 02:41:51;;;;;;;16.73;10.90;;;11.70;68.40;;;;;;5032743;28;20120;-62
2023/04/19 02:44:17;;;;;;;14.07;10.43;;;11.70;68.40;;;;;;5032023;28;20026;-62
2023/04/19 02:46:52;;;;;;;13.52;10.27;;;11.70;68.30;;;;;;5034443;28;20025;-62
2023/04/19 02:49:18;;;;;;;14.93;9.50;;;11.70;68.50;;;;;;5023975;28;20055;-62
2023/04/19 02:51:44;;;;;;;15.35;10.48;;;11.60;68.20;;;;;;5035272;28;20100;-62
2023/04/19 02:54:13;;;;;;;15.40;10.18;;;11.60;68.30;;;;;;5032842;28;20057;-61
2023/04/19 02:56:38;;;;;;;13.13;10.20;;;11.60;68.40;;;;;;5047507;28;20060;-62
2023/04/19 02:59:04;;;;;;;14.73;11.23;;;11.60;68.30;;;;;;5026819;28;20030;-62
2023/04/19 03:01:31;;;;;;;16.02;10.25;;;11.60;68.40;;;;;;5028120;28;20022;-62
2023/04/19 03:03:57;;;;;;;13.82;9.93;;;11.60;68.40;;;;;;5025767;28;20157;-62
2023/04/19 03:06:22;;;;;;;15.77;11.27;;;11.60;68.40;;;;;;5039258;28;20440;-62
2023/04/19 03:08:48;;;;;;;14.60;10.73;;;11.60;68.40;;;;;;5039836;28;20037;-62
2023/04/19 03:11:16;;;;;;;24.80;10.30;;;11.60;68.40;;;;;;5035484;28;20038;-62
2023/04/19 03:13:42;;;;;;;14.65;10.18;;;11.60;68.40;;;;;;5027601;28;20018;-63
2023/04/19 03:16:08;;;;;;;15.75;10.07;;;11.60;68.50;;;;;;5025185;28;20653;-62
2023/04/19 03:18:35;;;;;;;13.52;10.75;;;11.50;68.50;;;;;;5030566;28;20022;-63
2023/04/19 03:21:01;;;;;;;14.95;10.95;;;11.50;68.50;;;;;;5027022;28;20043;-62
2023/04/19 03:23:28;;;;;;;15.27;10.23;;;11.50;68.60;;;;;;5031122;28;20033;-62
2023/04/19 03:25:53;;;;;;;14.00;10.50;;;11.50;68.60;;;;;;5036079;28;20032;-62
2023/04/19 03:28:19;;;;;;;14.95;11.18;;;11.50;68.60;;;;;;5026624;28;20149;-62
2023/04/19 03:30:45;;;;;;;14.20;10.55;;;11.50;68.70;;;;;;5030676;28;20042;-61
2023/04/19 03:33:10;;;;;;;16.67;10.93;;;11.50;68.70;;;;;;5027016;28;20029;-63
2023/04/19 03:35:36;;;;;;;15.10;11.18;;;11.50;68.60;;;;;;5027199;28;20026;-62
2023/04/19 03:38:02;;;;;;;15.88;10.57;;;11.50;68.60;;;;;;5029905;28;20460;-62
2023/04/19 03:40:29;;;;;;;18.10;11.20;;;11.50;68.60;;;;;;5038350;28;20030;-62
2023/04/19 03:42:55;;;;;;;16.83;11.55;;;11.50;68.60;;;;;;5030057;28;20018;-62
2023/04/19 03:45:21;;;;;;;20.33;11.98;;;11.50;68.70;;;;;;5034254;28;20112;-63
2023/04/19 03:47:47;;;;;;;15.00;11.38;;;11.50;68.60;;;;;;5033634;28;20032;-61
2023/04/19 03:50:12;;;;;;;17.95;12.35;;;11.50;68.60;;;;;;5029154;28;20039;-62
2023/04/19 03:52:38;;;;;;;17.50;11.90;;;11.40;68.50;;;;;;5035148;28;20029;-62
2023/04/19 03:55:04;;;;;;;16.15;11.77;;;11.40;68.60;;;;;;5026490;28;20034;-62
2023/04/19 03:57:30;;;;;;;19.67;12.77;;;11.40;68.60;;;;;;5025457;28;20033;-62
2023/04/19 03:59:56;;;;;;;17.25;11.38;;;11.40;68.60;;;;;;5033861;28;20029;-62
2023/04/19 04:02:21;;;;;;;17.27;11.60;;;11.40;68.70;;;;;;5029738;28;20408;-62
2023/04/19 04:04:52;;;;;;;15.15;11.48;;;11.40;68.80;;;;;;5028278;28;20484;-62
2023/04/19 04:07:18;;;;;;;16.77;11.52;;;11.40;68.90;;;;;;5026399;28;20105;-62
2023/04/19 04:09:46;;;;;;;16.15;11.07;;;11.40;68.60;;;;;;5028784;28;20041;-62
2023/04/19 04:12:12;;;;;;;16.10;11.05;;;11.40;68.80;;;;;;5031158;28;20021;-63
2023/04/19 04:14:37;;;;;;;16.63;11.85;;;11.30;68.70;;;;;;5066323;28;20052;-62
2023/04/19 04:17:03;;;;;;;15.13;11.20;;;11.30;68.90;;;;;;5036449;28;20120;-62
2023/04/19 04:19:29;;;;;;;18.30;11.52;;;11.30;68.80;;;;;;5031194;28;20095;-63
2023/04/19 04:21:54;;;;;;;14.98;10.68;;;11.30;68.80;;;;;;5034449;28;20034;-62
2023/04/19 04:24:21;;;;;;;15.52;11.23;;;11.30;68.80;;;;;;5025157;28;20021;-61
2023/04/19 04:26:48;;;;;;;15.93;10.77;;;11.20;68.80;;;;;;5040535;28;20022;-63
2023/04/19 04:29:15;;;;;;;19.90;12.23;;;11.30;68.90;;;;;;5068584;28;20048;-62
2023/04/19 04:31:41;;;;;;;15.43;11.52;;;11.20;68.90;;;;;;5034279;28;20029;-62
2023/04/19 04:34:08;;;;;;;18.70;12.65;;;11.20;69.00;;;;;;5021095;28;20082;-63
2023/04/19 04:36:35;;;;;;;17.20;11.90;;;11.20;69.00;;;;;;5032050;28;20053;-62
2023/04/19 04:39:01;;;;;;;16.55;12.20;;;11.20;68.80;;;;;;5028314;28;20068;-62
2023/04/19 04:41:30;;;;;;;15.43;11.52;;;11.20;68.90;;;;;;5037083;28;20124;-62
2023/04/19 04:43:57;;;;;;;17.77;11.98;;;11.20;68.90;;;;;;5033172;28;20081;-61
2023/04/19 04:46:23;;;;;;;17.23;12.77;;;11.20;69.00;;;;;;5030042;28;20033;-62
2023/04/19 04:48:48;;;;;;;16.55;12.48;;;11.20;69.10;;;;;;5030668;28;20025;-63
2023/04/19 04:51:14;;;;;;;15.68;11.88;;;11.10;69.00;;;;;;5029089;28;20037;-62
2023/04/19 04:53:40;;;;;;;19.40;12.18;;;11.10;68.90;;;;;;5030769;28;20032;-62
2023/04/19 04:56:06;;;;;;;16.15;12.00;;;11.10;69.00;;;;;;5023920;28;20102;-62
2023/04/19 04:58:33;;;;;;;19.55;12.25;;;11.10;69.00;;;;;;5040322;28;20022;-62
2023/04/19 05:00:59;;;;;;;18.30;12.32;;;11.10;69.00;;;;;;5029024;28;20037;-62
2023/04/19 05:03:26;;;;;;;18.13;11.13;;;11.10;69.00;;;;;;5024360;28;20026;-62
2023/04/19 05:05:51;;;;;;;19.25;12.43;;;11.10;69.00;;;;;;5028872;28;20022;-62
2023/04/19 05:08:17;;;;;;;17.23;12.23;;;11.10;69.00;;;;;;5024010;28;20406;-63
2023/04/19 05:10:43;;;;;;;18.08;11.70;;;11.10;69.00;;;;;;5028037;28;20098;-62
2023/04/19 05:13:08;;;;;;;17.08;11.85;;;11.00;68.90;;;;;;5028176;28;20460;-62
2023/04/19 05:15:34;;;;;;;17.35;12.52;;;11.00;69.00;;;;;;5024686;28;20034;-62
2023/04/19 05:17:59;;;;;;;16.35;11.35;;;11.10;69.00;;;;;;5030502;28;20094;-62
2023/04/19 05:20:26;;;;;;;19.40;13.32;;;11.00;69.00;;;;;;5026262;28;20029;-62
2023/04/19 05:23:00;;;;;;;20.85;12.25;;;10.90;68.90;;;;;;5065205;28;20029;-62
2023/04/19 05:25:26;;;;;;;21.43;11.97;;;11.00;68.90;;;;;;5028977;28;20033;-62
2023/04/19 05:27:52;;;;;;;17.42;11.50;;;11.00;68.80;;;;;;5030937;28;20300;-62
2023/04/19 05:30:17;;;;;;;17.85;12.27;;;11.00;68.70;;;;;;5033347;28;20034;-62
2023/04/19 05:32:43;;;;;;;18.83;11.82;;;11.00;68.70;;;;;;5070313;28;20030;-63
2023/04/19 05:35:10;;;;;;;16.83;10.93;;;11.00;68.70;;;;;;5027033;28;20087;-61
2023/04/19 05:37:35;;;;;;;15.43;10.90;;;11.00;68.70;;;;;;5031962;28;20041;-61
2023/04/19 05:40:04;;;;;;;18.00;11.77;;;11.00;68.70;;;;;;5023382;28;20040;-62
2023/04/19 05:42:30;;;;;;;16.30;12.07;;;11.00;68.70;;;;;;5029509;28;20037;-62
2023/04/19 05:44:56;;;;;;;15.10;11.57;;;11.00;68.70;;;;;;5026520;28;20030;-62
2023/04/19 05:47:22;;;;;;;16.20;11.05;;;11.00;68.70;;;;;;5029562;28;20100;-61
2023/04/19 05:49:49;;;;;;;16.75;11.40;;;11.10;68.80;;;;;;5028122;28;20037;-62
2023/04/19 05:52:14;;;;;;;16.48;11.40;;;11.10;69.40;;;;;;5024697;28;20032;-62
2023/04/19 05:54:40;;;;;;;15.07;10.75;;;11.10;68.70;;;;;;5028597;28;20030;-63
2023/04/19 05:57:06;;;;;;;18.40;12.05;;;11.10;68.70;;;;;;5025249;28;20405;-62
2023/04/19 05:59:31;;;;;;;16.80;11.70;;;11.20;68.70;;;;;;5024692;28;20030;-61
2023/04/19 06:01:57;;;;;;;19.73;11.98;;;11.20;68.60;;;;;;5031503;28;20042;-62
2023/04/19 06:04:23;;;;;;;19.60;11.68;;;11.20;68.60;;;;;;5024894;28;20033;-66
2023/04/19 06:06:49;;;;;;;15.25;10.65;;;11.20;68.40;;;;;;5036639;28;20021;-65
2023/04/19 06:09:16;;;;;;;17.73;11.98;;;11.20;68.40;;;;;;5063236;28;20033;-66
2023/04/19 06:11:42;;;;;;;17.73;11.48;;;11.20;68.40;;;;;;5030366;28;20037;-66
2023/04/19 06:14:09;;;;;;;17.00;11.55;;;11.30;68.50;;;;;;5035565;28;20041;-66
2023/04/19 06:16:34;;;;;;;16.40;11.52;;;11.30;68.40;;;;;;5037116;28;20044;-66
2023/04/19 06:19:00;;;;;;;13.00;9.75;;;11.30;68.40;;;;;;5036481;28;20408;-66
2023/04/19 06:21:28;;;;;;;15.25;10.77;;;11.30;68.30;;;;;;5027095;28;20487;-66
2023/04/19 06:23:54;;;;;;;18.77;10.85;;;11.40;68.20;;;;;;5028113;28;20040;-65
2023/04/19 06:26:20;;;;;;;15.88;11.07;;;11.40;68.20;;;;;;5024572;28;20037;-65
2023/04/19 06:28:46;;;;;;;14.43;10.57;;;11.40;68.00;;;;;;5030244;28;20049;-64
2023/04/19 06:31:11;;;;;;;21.67;10.82;;;11.40;67.90;;;;;;5030062;28;20045;-66
2023/04/19 06:33:37;;;;;;;19.00;12.05;;;11.50;68.00;;;;;;5034663;28;20099;-65
2023/04/19 06:36:03;;;;;;;18.77;11.80;;;11.50;68.10;;;;;;5031915;28;20029;-66
2023/04/19 06:38:29;;;;;;;16.50;11.10;;;11.50;68.00;;;;;;5025150;28;20042;-66
2023/04/19 06:40:54;;;;;;;17.10;10.73;;;11.60;68.10;;;;;;5032456;28;20053;-65
2023/04/19 06:43:20;;;;;;;15.25;10.10;;;11.60;68.00;;;;;;5031066;28;20036;-66
2023/04/19 06:45:47;;;;;;;16.35;10.85;;;11.60;67.80;;;;;;5031577;28;20045;-66
2023/04/19 06:48:12;;;;;;;18.92;11.20;;;11.70;67.60;;;;;;5032091;28;20023;-66
2023/04/19 06:50:38;;;;;;;15.75;10.98;;;11.70;67.50;;;;;;5023387;28;20106;-66
2023/04/19 06:53:04;;;;;;;14.40;10.48;;;11.70;67.50;;;;;;5025999;28;20050;-65
2023/04/19 06:55:30;;;;;;;19.65;11.18;;;11.70;67.50;;;;;;5032274;28;20037;-66
2023/04/19 06:57:55;;;;;;;19.00;11.15;;;11.80;67.60;;;;;;5031479;28;20033;-65
2023/04/19 07:00:22;;;;;;;16.27;10.65;;;11.80;67.40;;;;;;5025681;28;20026;-65
2023/04/19 07:02:51;;;;;;;16.30;10.73;;;11.80;67.20;;;;;;5030994;28;20031;-65
2023/04/19 07:05:17;;;;;;;15.13;10.52;;;11.80;67.30;;;;;;5027864;28;20098;-66
2023/04/19 07:07:43;;;;;;;15.32;10.60;;;11.90;67.60;;;;;;5033279;28;20108;-65
2023/04/19 07:10:09;;;;;;;15.77;10.80;;;11.90;67.60;;;;;;5029131;28;20093;-66
2023/04/19 07:12:36;;;;;;;16.80;10.82;;;12.00;67.50;;;;;;5029717;28;20083;-65
2023/04/19 07:15:01;;;;;;;18.83;11.02;;;12.10;67.30;;;;;;5029865;28;20468;-65
2023/04/19 07:17:27;;;;;;;17.00;11.30;;;12.20;67.30;;;;;;5028794;28;20026;-65
2023/04/19 07:19:52;;;;;;;18.15;10.30;;;12.20;67.10;;;;;;5033986;28;20036;-66
2023/04/19 07:22:18;;;;;;;14.80;10.35;;;12.30;66.90;;;;;;5032050;28;20033;-65
2023/04/19 07:24:44;;;;;;;15.70;10.27;;;12.40;66.70;;;;;;5026779;28;20037;-66
2023/04/19 07:27:09;;;;;;;17.40;10.43;;;12.40;66.60;;;;;;5022679;28;20106;-66
2023/04/19 07:29:36;;;;;;;15.30;10.35;;;12.50;66.50;;;;;;5030817;28;20017;-66
2023/04/19 07:32:02;;;;;;;14.00;10.07;;;12.60;66.60;;;;;;5019312;28;20079;-65
2023/04/19 07:34:28;;;;;;;17.30;10.02;;;12.70;66.50;;;;;;5030577;28;20045;-65
2023/04/19 07:36:53;;;;;;;21.27;11.23;;;12.80;66.40;;;;;;5041695;28;20053;-67
2023/04/19 07:39:19;;;;;;;18.90;10.77;;;12.90;66.00;;;;;;4951977;28;20652;-66
2023/04/19 07:41:45;;;;;;;14.85;10.23;;;12.90;65.20;;;;;;5021428;28;20089;-66
2023/04/19 07:44:12;;;;;;;20.38;10.98;;;13.00;65.40;;;;;;5018672;28;20029;-65
2023/04/19 07:46:38;;;;;;;19.35;10.65;;;13.00;65.10;;;;;;5022278;28;20029;-66
2023/04/19 07:49:04;;;;;;;15.63;11.05;;;13.00;65.10;;;;;;5020769;28;20060;-66
2023/04/19 07:51:30;;;;;;;16.10;10.40;;;13.00;65.00;;;;;;5029670;28;20120;-66
2023/04/19 07:53:56;;;;;;;16.20;10.15;;;13.10;65.00;;;;;;5035577;28;20396;-67
2023/04/19 07:56:22;;;;;;;17.42;10.32;;;13.10;64.90;;;;;;5027051;28;20026;-67
2023/04/19 07:58:48;;;;;;;14.18;9.73;;;13.10;64.80;;;;;;5029747;28;20022;-67
2023/04/19 08:01:13;;;;;;;18.67;10.10;;;13.10;64.70;;;;;;5029945;28;20061;-67
2023/04/19 08:03:40;;;;;;;17.23;11.05;;;13.10;64.50;;;;;;5036881;28;20034;-67
2023/04/19 08:06:07;;;;;;;16.20;10.85;;;13.10;64.50;;;;;;5031569;28;20021;-67
2023/04/19 08:08:33;;;;;;;15.20;9.68;;;13.20;64.60;;;;;;5031424;28;20355;-66
2023/04/19 08:11:01;;;;;;;14.45;10.35;;;13.20;64.40;;;;;;5028669;28;20048;-67
2023/04/19 08:13:28;;;;;;;14.30;10.73;;;13.20;64.20;;;;;;5019828;28;20030;-66
2023/04/19 08:15:53;;;;;;;13.38;10.00;;;13.20;64.00;;;;;;5020792;28;20434;-66
2023/04/19 08:18:19;;;;;;;17.10;10.30;;;13.20;64.00;;;;;;5015907;28;20072;-66
2023/04/19 08:20:46;;;;;;;16.85;10.60;;;13.30;64.10;;;;;;5030031;28;20110;-66
2023/04/19 08:23:11;;;;;;;15.63;9.70;;;13.30;63.90;;;;;;5036896;28;20017;-65
2023/04/19 08:25:37;;;;;;;15.05;10.23;;;13.30;63.70;;;;;;5039772;28;20452;-66
2023/04/19 08:28:04;;;;;;;12.70;9.57;;;13.40;63.60;;;;;;5025970;28;20030;-66
2023/04/19 08:30:29;;;;;;;17.35;9.80;;;13.40;63.60;;;;;;5028249;28;20400;-66
2023/04/19 08:32:55;;;;;;;13.02;9.30;;;13.40;63.50;;;;;;5022048;28;20026;-66
2023/04/19 08:35:21;;;;;;;17.63;9.32;;;13.50;63.40;;;;;;5030556;28;20034;-66
2023/04/19 08:37:48;;;;;;;13.20;9.10;;;13.50;63.40;;;;;;5042070;28;20038;-66
2023/04/19 08:40:15;;;;;;;11.93;8.85;;;13.60;63.50;;;;;;5052490;28;20046;-66
2023/04/19 08:42:41;;;;;;;14.70;8.95;;;13.60;63.60;;;;;;5046738;28;20056;-66
2023/04/19 08:45:10;;;;;;;15.63;9.20;;;13.70;63.70;;;;;;5026250;28;20052;-66
2023/04/19 08:47:36;;;;;;;15.32;8.82;;;13.80;63.40;;;;;;5018157;28;20026;-65
2023/04/19 08:50:04;;;;;;;14.45;8.93;;;14.00;63.40;;;;;;5019701;28;20042;-65
2023/04/19 08:52:33;;;;;;;13.80;9.07;;;14.10;63.00;;;;;;5020485;28;20335;-65
2023/04/19 08:55:04;;;;;;;18.88;9.98;;;14.20;63.00;;;;;;5030278;28;20073;-65
2023/04/19 08:57:32;;;;;;;14.63;8.07;;;14.30;62.80;;;;;;5042660;28;20040;-66
2023/04/19 08:59:59;;;;;;;13.27;8.43;;;14.40;62.80;;;;;;5028869;28;20041;-65
2023/04/19 09:02:25;;;;;;;15.18;7.85;;;14.50;62.40;;;;;;5026706;28;20013;-66
2023/04/19 09:04:51;;;;;;;21.42;8.45;;;14.60;61.70;;;;;;5023886;28;20419;-65
2023/04/19 09:07:27;;;;;;;9.57;7.03;;;14.70;61.30;;;;;;5030474;28;20141;-65
2023/04/19 09:10:09;;;;;;;12.77;6.85;;;14.70;61.30;;;;;;5020756;28;20041;-66
2023/04/19 09:12:36;;;;;;;14.80;8.68;;;14.90;61.10;;;;;;5021396;28;20132;-66
2023/04/19 09:15:04;;;;;;;11.60;7.85;;;15.00;62.30;;;;;;5025697;28;20034;-66
2023/04/19 09:17:30;;;;;;;13.27;8.25;;;15.20;62.20;;;;;;5018916;28;20129;-65
2023/04/19 09:19:57;;;;;;;13.20;8.25;;;15.40;61.50;;;;;;5021023;28;20049;-66
2023/04/19 09:22:22;;;;;;;11.02;7.15;;;15.50;60.60;;;;;;5024775;28;20037;-66
2023/04/19 09:24:49;;;;;;;11.40;7.70;;;15.60;60.10;;;;;;5024122;28;20021;-66
2023/04/19 09:27:31;;;;;;;14.38;7.75;;;15.60;59.80;;;;;;5027097;28;20023;-65
2023/04/19 09:29:59;;;;;;;10.27;7.32;;;15.60;58.70;;;;;;5017184;28;20026;-66
2023/04/19 09:32:25;;;;;;;16.80;8.25;;;15.60;59.50;;;;;;5032382;28;20453;-67
2023/04/19 09:35:00;;;;;;;13.30;7.45;;;15.70;59.50;;;;;;5024572;28;20048;-66
2023/04/19 09:37:26;;;;;;;9.70;6.28;;;15.70;59.00;;;;;;5022755;28;20054;-66
2023/04/19 09:39:52;;;;;;;18.42;8.60;;;15.70;59.30;;;;;;4956143;28;20026;-67
2023/04/19 09:42:19;;;;;;;14.77;7.22;;;15.80;59.50;;;;;;5035350;28;20026;-65
2023/04/19 09:44:57;;;;;;;14.48;7.32;;;15.80;58.90;;;;;;5026649;28;20026;-66
2023/04/19 09:47:25;;;;;;;13.20;6.70;;;15.80;58.40;;;;;;5024991;28;20026;-66
2023/04/19 09:50:04;;;;;;;14.18;6.72;;;15.70;58.40;;;;;;5028630;28;20041;-66
2023/04/19 09:52:32;;;;;;;9.45;6.00;;;15.60;57.60;;;;;;5027553;28;20030;-65
2023/04/19 09:55:04;;;;;;;9.73;5.82;;;15.60;58.30;;;;;;5024965;28;20041;-66
2023/04/19 09:57:31;;;;;;;14.57;6.43;;;15.60;58.50;;;;;;5025121;28;20040;-66
2023/04/19 09:59:58;;;;;;;10.80;6.95;;;15.60;58.40;;;;;;5028728;28;20022;-65
2023/04/19 10:02:29;;;;;;;13.00;6.75;;;15.50;57.90;;;;;;5022006;28;20056;-67
2023/04/19 10:04:56;;;;;;;11.65;6.32;;;15.50;57.30;;;;;;5022870;28;20485;-65
2023/04/19 10:07:23;;;;;;;13.98;6.18;;;15.50;57.80;;;;;;5026805;28;20414;-65
2023/04/19 10:09:50;;;;;;;11.10;6.82;;;15.40;57.70;;;;;;5020523;28;20022;-66
2023/04/19 10:12:16;;;;;;;13.57;6.63;;;15.30;57.60;;;;;;5031284;28;20029;-66
2023/04/19 10:14:42;;;;;;;10.27;6.38;;;15.20;57.80;;;;;;5026318;28;20026;-65
2023/04/19 10:17:08;;;;;;;9.63;6.82;;;15.10;57.70;;;;;;5028800;28;20026;-65
2023/04/19 10:19:36;;;;;;;9.45;6.60;;;15.00;57.80;;;;;;5026641;28;20029;-64
2023/04/19 10:22:06;;;;;;;8.93;6.57;;;14.90;58.10;;;;;;5017645;28;20018;-65
2023/04/19 10:24:32;;;;;;;14.05;7.43;;;14.80;58.30;;;;;;5028775;28;22977;-65
2023/04/19 10:27:13;;;;;;;12.80;7.55;;;14.80;58.60;;;;;;5026346;28;20030;-66
2023/04/19 10:29:59;;;;;;;10.00;7.05;;;14.70;58.70;;;;;;5024695;28;20049;-67
2023/04/19 10:32:42;;;;;;;10.27;6.70;;;14.70;58.80;;;;;;5020486;28;20052;-66
2023/04/19 10:35:20;;;;;;;14.25;6.45;;;14.70;58.80;;;;;;5031621;28;20033;-65
2023/04/19 10:38:03;;;;;;;14.60;7.03;;;14.70;59.30;;;;;;5027990;28;20049;-67
2023/04/19 10:40:51;;;;;;;14.93;7.50;;;14.70;59.00;;;;;;5020290;28;20027;-66
2023/04/19 10:43:18;;;;;;;11.52;7.05;;;14.70;58.70;;;;;;5031205;28;20029;-65
2023/04/19 10:45:44;;;;;;;13.73;7.07;;;14.70;59.10;;;;;;5026032;28;20037;-65
2023/04/19 10:48:29;;;;;;;13.05;6.80;;;14.80;59.20;;;;;;5026070;28;20273;-66
2023/04/19 10:51:02;;;;;;;;;;;14.80;58.50;;;;;;5011403;28;20184;-65
2023/04/19 10:53:53;;;;;;;10.35;6.25;;;14.80;58.60;;;;;;5026855;28;20328;-66
2023/04/19 10:56:40;;;;;;;13.38;6.22;;;14.80;58.10;;;;;;5029037;28;20034;-66
2023/04/19 10:59:10;;;;;;;15.10;7.18;;;14.80;58.70;;;;;;5023188;28;20571;-66
2023/04/19 11:01:38;;;;;;;14.52;7.78;;;14.70;58.70;;;;;;5030858;28;20026;-66
2023/04/19 11:04:11;;;;;;;13.07;7.25;;;14.70;58.70;;;;;;5032374;28;20040;-66
2023/04/19 11:06:55;;;;;;;10.77;7.47;;;14.60;58.80;;;;;;5024963;28;20449;-65
2023/04/19 11:09:33;;;;;;;11.25;6.90;;;14.60;58.90;;;;;;5027580;28;20018;-66
2023/04/19 11:12:11;;;;;;;10.18;7.03;;;14.50;58.70;;;;;;5021798;28;20049;-66
2023/04/19 11:14:39;;;;;;;8.43;6.53;;;14.50;58.90;;;;;;5021922;28;20022;-65
2023/04/19 11:17:24;;;;;;;8.48;6.43;;;14.30;59.20;;;;;;5027052;28;20056;-66
2023/04/19 11:19:56;;;;;;;10.88;7.00;;;14.30;59.50;;;;;;5019448;28;20037;-66
2023/04/19 11:22:42;;;;;;;11.90;7.30;;;14.20;59.60;;;;;;5057619;28;20045;-66
2023/04/19 11:25:08;;;;;;;11.30;7.28;;;14.10;59.90;;;;;;5057797;28;20034;-66
2023/04/19 11:27:34;;;;;;;10.32;7.70;;;14.10;60.00;;;;;;5032325;28;20021;-66
2023/04/19 11:30:10;;;;;;;12.07;7.85;;;14.00;60.30;;;;;;5024238;28;20088;-66
2023/04/19 11:32:37;;;;;;;11.70;8.32;;;14.00;60.70;;;;;;5029429;28;20013;-65
2023/04/19 11:35:07;;;;;;;11.02;7.57;;;13.90;60.90;;;;;;5058807;28;20034;-66
2023/04/19 11:37:37;;;;;;;11.77;8.15;;;13.90;61.30;;;;;;5022356;28;20463;-65
2023/04/19 11:40:07;;;;;;;12.13;8.57;;;13.90;61.60;;;;;;5044774;28;20025;-65
2023/04/19 11:42:35;;;;;;;14.43;8.50;;;13.80;61.60;;;;;;5031782;28;20235;-65
2023/04/19 11:45:01;;;;;;;13.85;9.13;;;13.80;61.70;;;;;;5035059;28;20042;-65
2023/04/19 11:47:27;;;;;;;13.40;8.30;;;13.70;61.90;;;;;;5032037;28;20022;-65
2023/04/19 11:49:55;;;;;;;11.30;8.52;;;13.70;62.10;;;;;;5026421;28;20037;-64
2023/04/19 11:52:23;;;;;;;15.20;9.45;;;13.60;62.40;;;;;;5025522;28;20045;-64
2023/04/19 11:54:52;;;;;;;13.90;9.23;;;13.60;62.60;;;;;;5028702;28;20027;-65
2023/04/19 11:57:29;;;;;;;13.43;9.20;;;13.50;63.00;;;;;;5026725;28;20033;-65
2023/04/19 12:00:11;;;;;;;16.13;9.10;;;13.40;63.80;;;;;;5024860;28;20129;-64
2023/04/19 12:02:41;;;;;;;13.57;9.10;;;13.40;64.00;;;;;;5012272;28;20053;-64
2023/04/19 12:05:14;;;;;;;15.52;9.35;;;13.30;63.70;;;;;;5017987;28;20034;-64
2023/04/19 12:08:00;;;;;;;13.00;8.43;;;13.30;64.50;;;;;;5023948;28;20022;-65
2023/04/19 12:10:25;;;;;;;15.27;10.10;;;13.20;65.10;;;;;;5027900;28;20037;-64
2023/04/19 12:12:51;;;;;;;13.65;9.15;;;13.10;64.70;;;;;;5030138;28;20556;-67
2023/04/19 12:15:17;;;;;;;12.65;8.48;;;13.10;65.00;;;;;;5032421;28;20061;-66
2023/04/19 12:17:56;;;;;;;11.85;7.82;;;13.10;65.30;;;;;;5021796;28;20034;-67
2023/04/19 12:20:33;;;;;;;12.48;8.38;;;13.10;66.40;;;;;;5022035;28;20030;-64
2023/04/19 12:22:59;;;;;;;12.55;7.55;;;13.10;66.40;;;;;;5027337;28;20022;-65
2023/04/19 12:25:32;;;;;;;13.90;7.40;;;13.10;66.00;;;;;;5025366;28;20022;-65
2023/04/19 12:27:59;;;;;;;9.93;7.53;;;13.10;66.40;;;;;;5030720;28;20060;-64
2023/04/19 12:30:26;;;;;;;15.10;6.78;;;13.20;65.80;;;;;;5036191;28;20037;-64
2023/04/19 12:32:54;;;;;;;9.73;7.03;;;13.10;65.70;;;;;;5032491;28;20036;-64
2023/04/19 12:35:25;;;;;;;10.23;6.72;;;13.10;65.90;;;;;;5016830;28;20095;-66